sensor_id;sensor_type;location;lat;lon;timestamp;temperature;humidity
4964;DHT22;2497;47.410;9.740;2022-07-29T00:02:08;16.60;99.90
4964;DHT22;2497;47.410;9.740;2022-07-29T00:04:36;16.60;99.90
4964;DHT22;2497;47.410;9.740;2022-07-29T00:07:06;16.50;99.90
4964;DHT22;2497;47.410;9.740;2022-07-29T00:09:33;16.50;99.90
4964;DHT22;2497;47.410;9.740;2022-07-29T00:12:01;16.60;99.90
4964;DHT22;2497;47.410;9.740;2022-07-29T00:14:28;16.50;99.90
4964;DHT22;2497;47.410;9.740;2022-07-29T00:16:58;16.50;99.90
4964;DHT22;2497;47.410;9.740;2022-07-29T00:19:25;16.50;99.90
4964;DHT22;2497;47.410;9.740;2022-07-29T00:21:52;16.50;99.90
4964;DHT22;2497;47.410;9.740;2022-07-29T00:24:19;16.50;99.90
4964;DHT22;2497;47.410;9.740;2022-07-29T00:26:47;16.50;99.90
4964;DHT22;2497;47.410;9.740;2022-07-29T00:29:14;16.40;99.90
4964;DHT22;2497;47.410;9.740;2022-07-29T00:31:41;16.60;99.90
4964;DHT22;2497;47.410;9.740;2022-07-29T00:34:10;16.60;99.90
4964;DHT22;2497;47.410;9.740;2022-07-29T00:36:51;16.60;99.90
4964;DHT22;2497;47.410;9.740;2022-07-29T00:39:19;16.50;99.90
4964;DHT22;2497;47.410;9.740;2022-07-29T00:41:46;16.50;99.90
4964;DHT22;2497;47.410;9.740;2022-07-29T00:44:13;16.50;99.90
4964;DHT22;2497;47.410;9.740;2022-07-29T00:46:41;16.40;99.90
4964;DHT22;2497;47.410;9.740;2022-07-29T00:49:10;16.40;99.90
4964;DHT22;2497;47.410;9.740;2022-07-29T00:51:38;16.40;99.90
4964;DHT22;2497;47.410;9.740;2022-07-29T00:54:06;16.40;99.90
4964;DHT22;2497;47.410;9.740;2022-07-29T00:56:34;16.30;99.90
4964;DHT22;2497;47.410;9.740;2022-07-29T00:59:01;16.30;99.90
4964;DHT22;2497;47.410;9.740;2022-07-29T01:01:28;16.30;99.90
4964;DHT22;2497;47.410;9.740;2022-07-29T01:03:56;16.20;99.90
4964;DHT22;2497;47.410;9.740;2022-07-29T01:06:25;16.20;99.90
4964;DHT22;2497;47.410;9.740;2022-07-29T01:08:53;16.30;99.90
4964;DHT22;2497;47.410;9.740;2022-07-29T01:11:21;16.30;99.90
4964;DHT22;2497;47.410;9.740;2022-07-29T01:13:48;16.20;99.90
4964;DHT22;2497;47.410;9.740;2022-07-29T01:16:20;16.20;99.90
4964;DHT22;2497;47.410;9.740;2022-07-29T01:18:54;16.20;99.90
4964;DHT22;2497;47.410;9.740;2022-07-29T01:21:38;16.20;99.90
4964;DHT22;2497;47.410;9.740;2022-07-29T01:24:30;16.20;99.90
4964;DHT22;2497;47.410;9.740;2022-07-29T01:27:06;16.20;99.90
4964;DHT22;2497;47.410;9.740;2022-07-29T01:29:44;16.30;99.90
4964;DHT22;2497;47.410;9.740;2022-07-29T01:32:15;16.40;99.90
4964;DHT22;2497;47.410;9.740;2022-07-29T01:34:50;16.30;99.90
4964;DHT22;2497;47.410;9.740;2022-07-29T01:37:22;16.20;99.90
4964;DHT22;2497;47.410;9.740;2022-07-29T01:39:54;16.10;99.90
4964;DHT22;2497;47.410;9.740;2022-07-29T01:42:27;16.00;99.90
4964;DHT22;2497;47.410;9.740;2022-07-29T01:45:02;16.00;99.90
4964;DHT22;2497;47.410;9.740;2022-07-29T01:47:34;16.00;99.90
4964;DHT22;2497;47.410;9.740;2022-07-29T01:50:08;16.00;99.90
4964;DHT22;2497;47.410;9.740;2022-07-29T01:52:42;15.90;99.90
4964;DHT22;2497;47.410;9.740;2022-07-29T01:55:13;15.90;99.90
4964;DHT22;2497;47.410;9.740;2022-07-29T01:57:44;15.90;99.90
4964;DHT22;2497;47.410;9.740;2022-07-29T02:00:15;15.90;99.90
4964;DHT22;2497;47.410;9.740;2022-07-29T02:02:45;15.90;99.90
4964;DHT22;2497;47.410;9.740;2022-07-29T02:05:17;15.90;99.90
4964;DHT22;2497;47.410;9.740;2022-07-29T02:07:46;15.90;99.90
4964;DHT22;2497;47.410;9.740;2022-07-29T02:10:16;15.90;99.90
4964;DHT22;2497;47.410;9.740;2022-07-29T02:12:45;15.90;99.90
4964;DHT22;2497;47.410;9.740;2022-07-29T02:15:16;15.90;99.90
4964;DHT22;2497;47.410;9.740;2022-07-29T02:17:50;15.90;99.90
4964;DHT22;2497;47.410;9.740;2022-07-29T02:20:18;15.90;99.90
4964;DHT22;2497;47.410;9.740;2022-07-29T02:22:46;15.90;99.90
4964;DHT22;2497;47.410;9.740;2022-07-29T02:25:16;15.90;99.90
4964;DHT22;2497;47.410;9.740;2022-07-29T02:27:46;15.90;99.90
4964;DHT22;2497;47.410;9.740;2022-07-29T02:30:16;15.90;99.90
4964;DHT22;2497;47.410;9.740;2022-07-29T02:32:45;15.80;99.90
4964;DHT22;2497;47.410;9.740;2022-07-29T02:35:15;15.90;99.90
4964;DHT22;2497;47.410;9.740;2022-07-29T02:37:44;15.90;99.90
4964;DHT22;2497;47.410;9.740;2022-07-29T02:40:34;15.90;99.90
4964;DHT22;2497;47.410;9.740;2022-07-29T02:43:03;15.80;99.90
4964;DHT22;2497;47.410;9.740;2022-07-29T02:45:33;15.90;99.90
4964;DHT22;2497;47.410;9.740;2022-07-29T02:48:05;15.90;99.90
4964;DHT22;2497;47.410;9.740;2022-07-29T02:50:36;15.80;99.90
4964;DHT22;2497;47.410;9.740;2022-07-29T02:53:09;15.80;99.90
4964;DHT22;2497;47.410;9.740;2022-07-29T02:55:43;15.80;99.90
4964;DHT22;2497;47.410;9.740;2022-07-29T02:58:15;15.80;99.90
4964;DHT22;2497;47.410;9.740;2022-07-29T03:00:48;15.80;99.90
4964;DHT22;2497;47.410;9.740;2022-07-29T03:03:16;15.90;99.90
4964;DHT22;2497;47.410;9.740;2022-07-29T03:05:44;15.80;99.90
4964;DHT22;2497;47.410;9.740;2022-07-29T03:08:12;15.80;99.90
4964;DHT22;2497;47.410;9.740;2022-07-29T03:10:44;15.90;99.90
4964;DHT22;2497;47.410;9.740;2022-07-29T03:13:13;15.90;99.90
4964;DHT22;2497;47.410;9.740;2022-07-29T03:15:43;15.90;99.90
4964;DHT22;2497;47.410;9.740;2022-07-29T03:18:13;15.90;99.90
4964;DHT22;2497;47.410;9.740;2022-07-29T03:20:42;15.80;99.90
4964;DHT22;2497;47.410;9.740;2022-07-29T03:23:09;15.80;99.90
4964;DHT22;2497;47.410;9.740;2022-07-29T03:25:36;15.90;99.90
4964;DHT22;2497;47.410;9.740;2022-07-29T03:28:04;15.90;99.90
4964;DHT22;2497;47.410;9.740;2022-07-29T03:30:32;16.00;99.90
4964;DHT22;2497;47.410;9.740;2022-07-29T03:32:59;16.00;99.90
4964;DHT22;2497;47.410;9.740;2022-07-29T03:35:28;16.00;99.90
4964;DHT22;2497;47.410;9.740;2022-07-29T03:37:57;16.00;99.90
4964;DHT22;2497;47.410;9.740;2022-07-29T03:40:27;16.00;99.90
4964;DHT22;2497;47.410;9.740;2022-07-29T03:42:56;16.00;99.90
4964;DHT22;2497;47.410;9.740;2022-07-29T03:45:25;16.00;99.90
4964;DHT22;2497;47.410;9.740;2022-07-29T03:47:57;15.90;99.90
4964;DHT22;2497;47.410;9.740;2022-07-29T03:50:28;16.00;99.90
4964;DHT22;2497;47.410;9.740;2022-07-29T03:52:55;16.00;99.90
4964;DHT22;2497;47.410;9.740;2022-07-29T03:55:23;16.00;99.90
4964;DHT22;2497;47.410;9.740;2022-07-29T03:57:51;16.00;99.90
4964;DHT22;2497;47.410;9.740;2022-07-29T04:00:19;16.00;99.90
4964;DHT22;2497;47.410;9.740;2022-07-29T04:02:47;16.00;99.90
4964;DHT22;2497;47.410;9.740;2022-07-29T04:05:15;16.00;99.90
4964;DHT22;2497;47.410;9.740;2022-07-29T04:07:45;16.00;99.90
4964;DHT22;2497;47.410;9.740;2022-07-29T04:10:13;16.00;99.90
4964;DHT22;2497;47.410;9.740;2022-07-29T04:12:41;16.00;99.90
4964;DHT22;2497;47.410;9.740;2022-07-29T04:15:09;16.10;99.90
4964;DHT22;2497;47.410;9.740;2022-07-29T04:17:36;16.10;99.90
4964;DHT22;2497;47.410;9.740;2022-07-29T04:20:04;16.10;99.90
4964;DHT22;2497;47.410;9.740;2022-07-29T04:22:32;16.10;99.90
4964;DHT22;2497;47.410;9.740;2022-07-29T04:25:01;16.20;99.90
4964;DHT22;2497;47.410;9.740;2022-07-29T04:27:28;16.20;99.90
4964;DHT22;2497;47.410;9.740;2022-07-29T04:29:55;16.20;99.90
4964;DHT22;2497;47.410;9.740;2022-07-29T04:32:23;16.30;99.90
4964;DHT22;2497;47.410;9.740;2022-07-29T04:34:50;16.30;99.90
4964;DHT22;2497;47.410;9.740;2022-07-29T04:37:18;16.30;99.90
4964;DHT22;2497;47.410;9.740;2022-07-29T04:39:45;16.30;99.90
4964;DHT22;2497;47.410;9.740;2022-07-29T04:42:14;16.30;99.90
4964;DHT22;2497;47.410;9.740;2022-07-29T04:44:42;16.40;99.90
4964;DHT22;2497;47.410;9.740;2022-07-29T04:47:09;16.30;99.90
4964;DHT22;2497;47.410;9.740;2022-07-29T04:49:38;16.50;99.90
4964;DHT22;2497;47.410;9.740;2022-07-29T04:52:06;16.50;99.90
4964;DHT22;2497;47.410;9.740;2022-07-29T04:54:33;16.50;99.90
4964;DHT22;2497;47.410;9.740;2022-07-29T04:57:00;16.50;99.90
4964;DHT22;2497;47.410;9.740;2022-07-29T04:59:29;16.60;99.90
4964;DHT22;2497;47.410;9.740;2022-07-29T05:01:56;16.60;99.90
4964;DHT22;2497;47.410;9.740;2022-07-29T05:04:24;16.60;99.90
4964;DHT22;2497;47.410;9.740;2022-07-29T05:06:52;16.60;99.90
4964;DHT22;2497;47.410;9.740;2022-07-29T05:09:19;16.80;99.90
4964;DHT22;2497;47.410;9.740;2022-07-29T05:11:46;16.90;99.90
4964;DHT22;2497;47.410;9.740;2022-07-29T05:14:13;16.90;99.90
4964;DHT22;2497;47.410;9.740;2022-07-29T05:16:43;17.10;99.90
4964;DHT22;2497;47.410;9.740;2022-07-29T05:19:10;17.10;99.90
4964;DHT22;2497;47.410;9.740;2022-07-29T05:21:38;17.10;99.90
4964;DHT22;2497;47.410;9.740;2022-07-29T05:24:05;17.10;99.90
4964;DHT22;2497;47.410;9.740;2022-07-29T05:26:33;17.10;99.90
4964;DHT22;2497;47.410;9.740;2022-07-29T05:29:01;17.20;99.90
4964;DHT22;2497;47.410;9.740;2022-07-29T05:31:28;17.20;99.90
4964;DHT22;2497;47.410;9.740;2022-07-29T05:33:57;17.30;99.90
4964;DHT22;2497;47.410;9.740;2022-07-29T05:36:25;17.30;99.90
4964;DHT22;2497;47.410;9.740;2022-07-29T05:38:52;17.30;99.90
4964;DHT22;2497;47.410;9.740;2022-07-29T05:41:20;17.30;99.90
4964;DHT22;2497;47.410;9.740;2022-07-29T05:43:47;17.40;99.90
4964;DHT22;2497;47.410;9.740;2022-07-29T05:46:18;17.40;99.90
4964;DHT22;2497;47.410;9.740;2022-07-29T05:48:45;17.50;99.90
4964;DHT22;2497;47.410;9.740;2022-07-29T05:51:14;17.60;99.90
4964;DHT22;2497;47.410;9.740;2022-07-29T05:53:42;17.60;99.90
4964;DHT22;2497;47.410;9.740;2022-07-29T05:56:10;17.70;99.90
4964;DHT22;2497;47.410;9.740;2022-07-29T05:58:38;17.80;99.90
4964;DHT22;2497;47.410;9.740;2022-07-29T06:01:05;17.70;99.90
4964;DHT22;2497;47.410;9.740;2022-07-29T06:03:33;17.70;99.90
4964;DHT22;2497;47.410;9.740;2022-07-29T06:06:00;17.80;99.90
4964;DHT22;2497;47.410;9.740;2022-07-29T06:08:29;17.80;99.90
4964;DHT22;2497;47.410;9.740;2022-07-29T06:10:59;17.80;99.90
4964;DHT22;2497;47.410;9.740;2022-07-29T06:13:26;17.80;99.90
4964;DHT22;2497;47.410;9.740;2022-07-29T06:15:54;17.80;99.90
4964;DHT22;2497;47.410;9.740;2022-07-29T06:18:22;17.70;99.90
4964;DHT22;2497;47.410;9.740;2022-07-29T06:20:49;17.70;99.90
4964;DHT22;2497;47.410;9.740;2022-07-29T06:23:17;17.70;99.90
4964;DHT22;2497;47.410;9.740;2022-07-29T06:25:46;17.70;99.90
4964;DHT22;2497;47.410;9.740;2022-07-29T06:28:14;17.70;99.90
4964;DHT22;2497;47.410;9.740;2022-07-29T06:30:41;17.70;99.90
4964;DHT22;2497;47.410;9.740;2022-07-29T06:33:09;17.70;99.90
4964;DHT22;2497;47.410;9.740;2022-07-29T06:35:36;17.70;99.90
4964;DHT22;2497;47.410;9.740;2022-07-29T06:38:04;17.80;99.90
4964;DHT22;2497;47.410;9.740;2022-07-29T06:40:31;17.80;99.90
4964;DHT22;2497;47.410;9.740;2022-07-29T06:43:18;17.80;99.90
4964;DHT22;2497;47.410;9.740;2022-07-29T06:45:45;17.80;99.90
4964;DHT22;2497;47.410;9.740;2022-07-29T06:48:12;17.90;99.90
4964;DHT22;2497;47.410;9.740;2022-07-29T06:50:40;18.00;99.90
4964;DHT22;2497;47.410;9.740;2022-07-29T06:53:07;18.10;99.90
4964;DHT22;2497;47.410;9.740;2022-07-29T06:55:35;18.00;99.90
4964;DHT22;2497;47.410;9.740;2022-07-29T06:58:03;18.00;99.90
4964;DHT22;2497;47.410;9.740;2022-07-29T07:00:32;18.10;99.90
4964;DHT22;2497;47.410;9.740;2022-07-29T07:02:59;18.20;99.90
4964;DHT22;2497;47.410;9.740;2022-07-29T07:05:27;18.30;99.90
4964;DHT22;2497;47.410;9.740;2022-07-29T07:07:54;18.30;99.90
4964;DHT22;2497;47.410;9.740;2022-07-29T07:10:22;18.50;99.90
4964;DHT22;2497;47.410;9.740;2022-07-29T07:12:49;18.60;99.90
4964;DHT22;2497;47.410;9.740;2022-07-29T07:15:16;18.70;99.90
4964;DHT22;2497;47.410;9.740;2022-07-29T07:17:48;18.90;99.90
4964;DHT22;2497;47.410;9.740;2022-07-29T07:20:16;19.00;99.90
4964;DHT22;2497;47.410;9.740;2022-07-29T07:22:44;19.10;99.90
4964;DHT22;2497;47.410;9.740;2022-07-29T07:25:12;19.10;99.90
4964;DHT22;2497;47.410;9.740;2022-07-29T07:27:39;19.10;99.90
4964;DHT22;2497;47.410;9.740;2022-07-29T07:30:07;19.10;99.90
4964;DHT22;2497;47.410;9.740;2022-07-29T07:32:35;19.20;99.90
4964;DHT22;2497;47.410;9.740;2022-07-29T07:35:05;19.10;99.90
4964;DHT22;2497;47.410;9.740;2022-07-29T07:37:33;19.30;99.90
4964;DHT22;2497;47.410;9.740;2022-07-29T07:40:00;19.70;99.90
4964;DHT22;2497;47.410;9.740;2022-07-29T07:42:28;20.20;99.90
4964;DHT22;2497;47.410;9.740;2022-07-29T07:44:55;20.60;99.90
4964;DHT22;2497;47.410;9.740;2022-07-29T07:47:23;20.80;99.90
4964;DHT22;2497;47.410;9.740;2022-07-29T07:49:50;20.80;99.90
4964;DHT22;2497;47.410;9.740;2022-07-29T07:52:20;21.00;99.90
4964;DHT22;2497;47.410;9.740;2022-07-29T07:54:48;21.10;99.90
4964;DHT22;2497;47.410;9.740;2022-07-29T07:57:16;21.10;99.90
4964;DHT22;2497;47.410;9.740;2022-07-29T07:59:43;21.00;99.90
4964;DHT22;2497;47.410;9.740;2022-07-29T08:02:10;21.20;99.90
4964;DHT22;2497;47.410;9.740;2022-07-29T08:04:38;21.10;99.90
4964;DHT22;2497;47.410;9.740;2022-07-29T08:07:07;21.10;99.90
4964;DHT22;2497;47.410;9.740;2022-07-29T08:09:36;21.10;99.90
4964;DHT22;2497;47.410;9.740;2022-07-29T08:12:04;21.00;99.90
4964;DHT22;2497;47.410;9.740;2022-07-29T08:14:32;20.80;99.90
4964;DHT22;2497;47.410;9.740;2022-07-29T08:16:59;20.80;99.90
4964;DHT22;2497;47.410;9.740;2022-07-29T08:19:27;20.70;99.90
4964;DHT22;2497;47.410;9.740;2022-07-29T08:21:54;20.70;99.90
4964;DHT22;2497;47.410;9.740;2022-07-29T08:24:22;20.50;99.90
4964;DHT22;2497;47.410;9.740;2022-07-29T08:27:08;20.30;99.90
4964;DHT22;2497;47.410;9.740;2022-07-29T08:29:35;20.10;99.90
4964;DHT22;2497;47.410;9.740;2022-07-29T08:32:04;20.30;99.90
4964;DHT22;2497;47.410;9.740;2022-07-29T08:34:32;20.40;99.90
4964;DHT22;2497;47.410;9.740;2022-07-29T08:36:59;20.20;99.90
4964;DHT22;2497;47.410;9.740;2022-07-29T08:39:27;20.30;99.90
4964;DHT22;2497;47.410;9.740;2022-07-29T08:41:54;20.20;99.90
4964;DHT22;2497;47.410;9.740;2022-07-29T08:44:23;20.20;99.90
4964;DHT22;2497;47.410;9.740;2022-07-29T08:46:52;20.10;99.90
4964;DHT22;2497;47.410;9.740;2022-07-29T08:49:20;19.90;99.90
4964;DHT22;2497;47.410;9.740;2022-07-29T08:51:47;19.60;99.90
4964;DHT22;2497;47.410;9.740;2022-07-29T08:54:17;19.30;99.90
4964;DHT22;2497;47.410;9.740;2022-07-29T08:56:48;19.10;99.90
4964;DHT22;2497;47.410;9.740;2022-07-29T08:59:16;19.00;99.90
4964;DHT22;2497;47.410;9.740;2022-07-29T09:01:46;18.90;99.90
4964;DHT22;2497;47.410;9.740;2022-07-29T09:04:15;18.90;99.90
4964;DHT22;2497;47.410;9.740;2022-07-29T09:06:45;18.90;99.90
4964;DHT22;2497;47.410;9.740;2022-07-29T09:09:13;18.90;99.90
4964;DHT22;2497;47.410;9.740;2022-07-29T09:11:42;19.00;99.90
4964;DHT22;2497;47.410;9.740;2022-07-29T09:14:11;19.10;99.90
4964;DHT22;2497;47.410;9.740;2022-07-29T09:16:49;19.20;99.90
4964;DHT22;2497;47.410;9.740;2022-07-29T09:19:25;19.20;99.90
4964;DHT22;2497;47.410;9.740;2022-07-29T09:21:53;19.20;99.90
4964;DHT22;2497;47.410;9.740;2022-07-29T09:24:38;19.30;99.90
4964;DHT22;2497;47.410;9.740;2022-07-29T09:27:19;19.30;99.90
4964;DHT22;2497;47.410;9.740;2022-07-29T09:29:54;19.30;99.90
4964;DHT22;2497;47.410;9.740;2022-07-29T09:32:23;19.30;99.90
4964;DHT22;2497;47.410;9.740;2022-07-29T09:35:18;19.40;99.90
4964;DHT22;2497;47.410;9.740;2022-07-29T09:37:46;19.40;99.90
4964;DHT22;2497;47.410;9.740;2022-07-29T09:40:15;19.50;99.90
4964;DHT22;2497;47.410;9.740;2022-07-29T09:42:42;19.50;99.90
4964;DHT22;2497;47.410;9.740;2022-07-29T09:45:10;19.40;99.90
4964;DHT22;2497;47.410;9.740;2022-07-29T09:47:45;19.30;99.90
4964;DHT22;2497;47.410;9.740;2022-07-29T09:50:14;19.30;99.90
4964;DHT22;2497;47.410;9.740;2022-07-29T09:52:46;19.40;99.90
4964;DHT22;2497;47.410;9.740;2022-07-29T09:55:13;19.50;99.90
4964;DHT22;2497;47.410;9.740;2022-07-29T09:57:41;19.50;99.90
4964;DHT22;2497;47.410;9.740;2022-07-29T10:00:11;19.50;99.90
4964;DHT22;2497;47.410;9.740;2022-07-29T10:02:39;19.70;99.90
4964;DHT22;2497;47.410;9.740;2022-07-29T10:05:18;19.90;99.90
4964;DHT22;2497;47.410;9.740;2022-07-29T10:07:47;20.00;99.90
4964;DHT22;2497;47.410;9.740;2022-07-29T10:10:22;20.10;99.90
4964;DHT22;2497;47.410;9.740;2022-07-29T10:12:53;20.50;99.90
4964;DHT22;2497;47.410;9.740;2022-07-29T10:15:22;20.70;99.90
4964;DHT22;2497;47.410;9.740;2022-07-29T10:17:50;21.00;99.90
4964;DHT22;2497;47.410;9.740;2022-07-29T10:20:21;21.10;99.90
4964;DHT22;2497;47.410;9.740;2022-07-29T10:22:49;21.20;99.90
4964;DHT22;2497;47.410;9.740;2022-07-29T10:25:16;21.40;99.90
4964;DHT22;2497;47.410;9.740;2022-07-29T10:27:45;21.50;99.90
4964;DHT22;2497;47.410;9.740;2022-07-29T10:30:14;21.70;99.90
4964;DHT22;2497;47.410;9.740;2022-07-29T10:36:04;22.00;99.90
4964;DHT22;2497;47.410;9.740;2022-07-29T10:38:43;22.40;99.90
4964;DHT22;2497;47.410;9.740;2022-07-29T10:41:23;22.60;99.90
4964;DHT22;2497;47.410;9.740;2022-07-29T10:43:54;22.80;99.90
4964;DHT22;2497;47.410;9.740;2022-07-29T10:46:23;22.70;99.90
4964;DHT22;2497;47.410;9.740;2022-07-29T10:49:12;22.80;99.90
4964;DHT22;2497;47.410;9.740;2022-07-29T10:52:01;22.90;99.90
4964;DHT22;2497;47.410;9.740;2022-07-29T10:54:42;23.20;99.90
4964;DHT22;2497;47.410;9.740;2022-07-29T10:57:12;23.40;99.90
4964;DHT22;2497;47.410;9.740;2022-07-29T10:59:39;23.60;99.90
4964;DHT22;2497;47.410;9.740;2022-07-29T11:02:40;24.00;99.90
4964;DHT22;2497;47.410;9.740;2022-07-29T11:05:11;24.60;99.90
4964;DHT22;2497;47.410;9.740;2022-07-29T11:10:49;25.50;99.90
4964;DHT22;2497;47.410;9.740;2022-07-29T11:16:23;25.50;99.90
4964;DHT22;2497;47.410;9.740;2022-07-29T11:19:19;25.50;99.90
4964;DHT22;2497;47.410;9.740;2022-07-29T11:21:47;25.60;99.90
4964;DHT22;2497;47.410;9.740;2022-07-29T11:24:19;25.90;99.90
4964;DHT22;2497;47.410;9.740;2022-07-29T11:27:16;26.50;99.90
4964;DHT22;2497;47.410;9.740;2022-07-29T11:29:53;27.10;99.90
4964;DHT22;2497;47.410;9.740;2022-07-29T11:32:22;27.40;99.90
4964;DHT22;2497;47.410;9.740;2022-07-29T11:35:11;27.70;99.90
4964;DHT22;2497;47.410;9.740;2022-07-29T11:37:38;27.90;99.90
4964;DHT22;2497;47.410;9.740;2022-07-29T11:40:13;28.00;99.90
4964;DHT22;2497;47.410;9.740;2022-07-29T11:42:45;27.60;99.90
4964;DHT22;2497;47.410;9.740;2022-07-29T11:45:18;27.30;99.90
4964;DHT22;2497;47.410;9.740;2022-07-29T11:47:52;27.40;99.90
4964;DHT22;2497;47.410;9.740;2022-07-29T11:50:34;27.50;99.90
4964;DHT22;2497;47.410;9.740;2022-07-29T11:53:03;27.70;99.90
4964;DHT22;2497;47.410;9.740;2022-07-29T11:55:38;28.10;99.90
4964;DHT22;2497;47.410;9.740;2022-07-29T11:58:06;28.40;99.90
4964;DHT22;2497;47.410;9.740;2022-07-29T12:00:35;28.50;99.90
4964;DHT22;2497;47.410;9.740;2022-07-29T12:03:05;28.40;99.90
4964;DHT22;2497;47.410;9.740;2022-07-29T12:05:36;28.70;99.90
4964;DHT22;2497;47.410;9.740;2022-07-29T12:08:08;28.90;99.90
4964;DHT22;2497;47.410;9.740;2022-07-29T12:10:38;29.00;99.90
4964;DHT22;2497;47.410;9.740;2022-07-29T12:13:05;29.30;99.90
4964;DHT22;2497;47.410;9.740;2022-07-29T12:15:33;29.30;99.90
4964;DHT22;2497;47.410;9.740;2022-07-29T12:18:10;29.10;99.90
4964;DHT22;2497;47.410;9.740;2022-07-29T12:20:38;28.80;99.90
4964;DHT22;2497;47.410;9.740;2022-07-29T12:23:06;28.40;99.90
4964;DHT22;2497;47.410;9.740;2022-07-29T12:25:35;28.20;99.90
4964;DHT22;2497;47.410;9.740;2022-07-29T12:28:05;27.80;99.90
4964;DHT22;2497;47.410;9.740;2022-07-29T12:30:37;27.40;99.90
4964;DHT22;2497;47.410;9.740;2022-07-29T12:33:17;27.00;99.90
4964;DHT22;2497;47.410;9.740;2022-07-29T12:35:47;26.60;99.90
4964;DHT22;2497;47.410;9.740;2022-07-29T12:38:15;26.50;99.90
4964;DHT22;2497;47.410;9.740;2022-07-29T12:40:44;26.40;99.90
4964;DHT22;2497;47.410;9.740;2022-07-29T12:43:15;26.40;99.90
4964;DHT22;2497;47.410;9.740;2022-07-29T12:45:44;26.30;99.90
4964;DHT22;2497;47.410;9.740;2022-07-29T12:48:13;26.10;99.90
4964;DHT22;2497;47.410;9.740;2022-07-29T12:50:55;26.10;99.90
4964;DHT22;2497;47.410;9.740;2022-07-29T12:53:22;26.10;99.90
4964;DHT22;2497;47.410;9.740;2022-07-29T12:55:52;26.20;99.90
4964;DHT22;2497;47.410;9.740;2022-07-29T12:58:28;26.10;99.90
4964;DHT22;2497;47.410;9.740;2022-07-29T13:01:01;25.80;99.90
4964;DHT22;2497;47.410;9.740;2022-07-29T13:03:29;25.60;99.90
4964;DHT22;2497;47.410;9.740;2022-07-29T13:06:31;25.30;99.90
4964;DHT22;2497;47.410;9.740;2022-07-29T13:09:05;25.10;99.90
4964;DHT22;2497;47.410;9.740;2022-07-29T13:11:33;25.00;99.90
4964;DHT22;2497;47.410;9.740;2022-07-29T13:14:03;24.80;99.90
4964;DHT22;2497;47.410;9.740;2022-07-29T13:16:31;24.70;99.90
4964;DHT22;2497;47.410;9.740;2022-07-29T13:19:10;24.50;99.90
4964;DHT22;2497;47.410;9.740;2022-07-29T13:21:38;24.40;99.90
4964;DHT22;2497;47.410;9.740;2022-07-29T13:24:07;24.30;99.90
4964;DHT22;2497;47.410;9.740;2022-07-29T13:26:35;24.20;99.90
4964;DHT22;2497;47.410;9.740;2022-07-29T13:29:07;24.10;99.90
4964;DHT22;2497;47.410;9.740;2022-07-29T13:31:35;24.10;99.90
4964;DHT22;2497;47.410;9.740;2022-07-29T13:34:03;24.00;99.90
4964;DHT22;2497;47.410;9.740;2022-07-29T13:36:30;24.00;99.90
4964;DHT22;2497;47.410;9.740;2022-07-29T13:38:57;23.90;99.90
4964;DHT22;2497;47.410;9.740;2022-07-29T13:41:26;23.90;99.90
4964;DHT22;2497;47.410;9.740;2022-07-29T13:43:54;23.90;99.90
4964;DHT22;2497;47.410;9.740;2022-07-29T13:46:23;23.70;99.90
4964;DHT22;2497;47.410;9.740;2022-07-29T13:48:50;23.70;99.90
4964;DHT22;2497;47.410;9.740;2022-07-29T13:51:18;23.60;99.90
4964;DHT22;2497;47.410;9.740;2022-07-29T13:53:46;23.60;99.90
4964;DHT22;2497;47.410;9.740;2022-07-29T13:56:13;23.50;99.90
4964;DHT22;2497;47.410;9.740;2022-07-29T13:58:41;23.40;99.90
4964;DHT22;2497;47.410;9.740;2022-07-29T14:01:08;23.20;99.90
4964;DHT22;2497;47.410;9.740;2022-07-29T14:03:37;23.20;99.90
4964;DHT22;2497;47.410;9.740;2022-07-29T14:06:06;23.30;99.90
4964;DHT22;2497;47.410;9.740;2022-07-29T14:08:34;23.40;99.90
4964;DHT22;2497;47.410;9.740;2022-07-29T14:11:01;23.40;99.90
4964;DHT22;2497;47.410;9.740;2022-07-29T14:13:28;23.20;99.90
4964;DHT22;2497;47.410;9.740;2022-07-29T14:15:56;23.00;99.90
4964;DHT22;2497;47.410;9.740;2022-07-29T14:18:23;22.60;99.90
4964;DHT22;2497;47.410;9.740;2022-07-29T14:20:52;22.60;99.90
4964;DHT22;2497;47.410;9.740;2022-07-29T14:23:19;22.50;99.90
4964;DHT22;2497;47.410;9.740;2022-07-29T14:25:47;22.30;99.90
4964;DHT22;2497;47.410;9.740;2022-07-29T14:28:14;22.20;99.90
4964;DHT22;2497;47.410;9.740;2022-07-29T14:30:41;22.20;99.90
4964;DHT22;2497;47.410;9.740;2022-07-29T14:33:09;22.00;99.90
4964;DHT22;2497;47.410;9.740;2022-07-29T14:35:36;21.80;99.90
4964;DHT22;2497;47.410;9.740;2022-07-29T14:38:05;21.60;99.90
4964;DHT22;2497;47.410;9.740;2022-07-29T14:40:33;21.40;99.90
4964;DHT22;2497;47.410;9.740;2022-07-29T14:43:00;21.40;99.90
4964;DHT22;2497;47.410;9.740;2022-07-29T14:45:28;21.20;99.90
4964;DHT22;2497;47.410;9.740;2022-07-29T14:47:55;21.10;99.90
4964;DHT22;2497;47.410;9.740;2022-07-29T14:50:22;21.00;99.90
4964;DHT22;2497;47.410;9.740;2022-07-29T14:52:51;20.90;99.90
4964;DHT22;2497;47.410;9.740;2022-07-29T14:55:21;20.80;99.90
4964;DHT22;2497;47.410;9.740;2022-07-29T14:57:48;20.80;99.90
4964;DHT22;2497;47.410;9.740;2022-07-29T15:00:17;20.80;99.90
4964;DHT22;2497;47.410;9.740;2022-07-29T15:02:44;20.60;99.90
4964;DHT22;2497;47.410;9.740;2022-07-29T15:05:12;20.60;99.90
4964;DHT22;2497;47.410;9.740;2022-07-29T15:07:40;20.50;99.90
4964;DHT22;2497;47.410;9.740;2022-07-29T15:10:07;20.60;99.90
4964;DHT22;2497;47.410;9.740;2022-07-29T15:12:36;20.60;99.90
4964;DHT22;2497;47.410;9.740;2022-07-29T15:15:04;20.60;99.90
4964;DHT22;2497;47.410;9.740;2022-07-29T15:17:33;20.50;99.90
4964;DHT22;2497;47.410;9.740;2022-07-29T15:20:00;20.30;99.90
4964;DHT22;2497;47.410;9.740;2022-07-29T15:22:27;20.30;99.90
4964;DHT22;2497;47.410;9.740;2022-07-29T15:24:55;20.20;99.90
4964;DHT22;2497;47.410;9.740;2022-07-29T15:27:22;20.10;99.90
4964;DHT22;2497;47.410;9.740;2022-07-29T15:29:52;20.00;99.90
4964;DHT22;2497;47.410;9.740;2022-07-29T15:32:20;19.80;99.90
4964;DHT22;2497;47.410;9.740;2022-07-29T15:34:47;19.80;99.90
4964;DHT22;2497;47.410;9.740;2022-07-29T15:37:15;19.70;99.90
4964;DHT22;2497;47.410;9.740;2022-07-29T15:39:42;19.60;99.90
4964;DHT22;2497;47.410;9.740;2022-07-29T15:42:10;19.50;99.90
4964;DHT22;2497;47.410;9.740;2022-07-29T15:44:37;19.50;99.90
4964;DHT22;2497;47.410;9.740;2022-07-29T15:47:06;19.30;99.90
4964;DHT22;2497;47.410;9.740;2022-07-29T15:49:35;19.30;99.90
4964;DHT22;2497;47.410;9.740;2022-07-29T15:52:04;19.20;99.90
4964;DHT22;2497;47.410;9.740;2022-07-29T15:54:33;19.10;99.90
4964;DHT22;2497;47.410;9.740;2022-07-29T15:57:02;19.10;99.90
4964;DHT22;2497;47.410;9.740;2022-07-29T15:59:29;19.10;99.90
4964;DHT22;2497;47.410;9.740;2022-07-29T16:01:56;19.10;99.90
4964;DHT22;2497;47.410;9.740;2022-07-29T16:04:26;19.00;99.90
4964;DHT22;2497;47.410;9.740;2022-07-29T16:06:54;19.00;99.90
4964;DHT22;2497;47.410;9.740;2022-07-29T16:09:22;19.00;99.90
4964;DHT22;2497;47.410;9.740;2022-07-29T16:11:50;19.00;99.90
4964;DHT22;2497;47.410;9.740;2022-07-29T16:14:19;18.90;99.90
4964;DHT22;2497;47.410;9.740;2022-07-29T16:16:46;19.00;99.90
4964;DHT22;2497;47.410;9.740;2022-07-29T16:19:14;19.00;99.90
4964;DHT22;2497;47.410;9.740;2022-07-29T16:21:43;19.00;99.90
4964;DHT22;2497;47.410;9.740;2022-07-29T16:24:11;19.00;99.90
4964;DHT22;2497;47.410;9.740;2022-07-29T16:26:38;19.00;99.90
4964;DHT22;2497;47.410;9.740;2022-07-29T16:29:05;18.90;99.90